EHVB/LID METAR and TAF weather

Enter ICAO airport designator
Station Type Date Time Source
EHVB METAR 2010/04/01 07:55 UTC NOAA

EHVB 010755Z AUTO 25017KT 9999NDV FEW021/// BKN037/// 05/01 Q1003 BLU


Station Type Date Time Source
EHVB Decoded METAR 2010/04/01 07:55 UTC NOAA

Valkenburg, Netherlands (EHVB) 52-11N 004-25E 2M
Apr 01, 2010 - 03:55 AM EDT / 2010.04.01 0755 UTC
Wind: from the WSW (250 degrees) at 20 MPH (17 KT):0
Sky conditions: mostly cloudy
Temperature: 41 F (5 C)
Dew Point: 33 F (1 C)
Relative Humidity: 75%
Pressure (altimeter): 29.62 in. Hg (1003 hPa)
ob: EHVB 010755Z AUTO 25017KT 9999NDV FEW021/// BKN037/// 05/01 Q1003 BLU
cycle: 8

Station Type Date Time Source
EHVB TAF UTC NOAA

Error!


Example: see airport list